createdAt,value
2023-04-21T00:00:14.167Z,10.67
2023-04-21T00:01:14.153Z,10.68
2023-04-21T00:02:14.244Z,10.62
2023-04-21T00:03:14.304Z,10.65
2023-04-21T00:04:14.347Z,10.61
2023-04-21T00:05:14.447Z,10.68
2023-04-21T00:06:14.224Z,10.67
2023-04-21T00:07:14.234Z,10.68
2023-04-21T00:08:14.254Z,10.62
2023-04-21T00:09:14.267Z,10.62
2023-04-21T00:10:14.292Z,10.61
2023-04-21T00:11:14.296Z,10.64
2023-04-21T00:12:14.312Z,10.64
2023-04-21T00:13:14.348Z,10.64
2023-04-21T00:14:14.338Z,10.65
2023-04-21T00:15:14.353Z,10.61
2023-04-21T00:16:14.399Z,10.72
2023-04-21T00:17:14.383Z,10.69
2023-04-21T00:18:14.409Z,10.65
2023-04-21T00:19:14.411Z,10.69
2023-04-21T00:20:14.430Z,10.62
2023-04-21T00:21:14.442Z,10.69
2023-04-21T00:22:14.455Z,10.68
2023-04-21T00:23:14.476Z,10.65
2023-04-21T00:24:14.487Z,10.68
2023-04-21T00:25:14.502Z,10.62
2023-04-21T00:26:14.528Z,10.67
2023-04-21T00:27:14.532Z,10.72
2023-04-21T00:28:14.542Z,10.67
2023-04-21T00:29:14.563Z,10.65
2023-04-21T00:30:14.578Z,10.72
2023-04-21T00:31:14.626Z,10.65
2023-04-21T00:32:14.616Z,10.75
2023-04-21T00:33:14.622Z,10.67
2023-04-21T00:34:14.637Z,10.67
2023-04-21T00:35:14.652Z,10.79
2023-04-21T00:36:14.672Z,10.64
2023-04-21T00:37:14.679Z,10.64
2023-04-21T00:38:14.688Z,10.67
2023-04-21T00:39:14.705Z,10.67
2023-04-21T00:40:14.734Z,10.79
2023-04-21T00:41:14.732Z,10.79
2023-04-21T00:42:14.749Z,10.67
2023-04-21T00:43:14.767Z,10.65
2023-04-21T00:44:14.776Z,10.75
2023-04-21T00:45:14.800Z,10.64
2023-04-21T00:46:14.850Z,10.65
2023-04-21T00:47:14.820Z,10.64
2023-04-21T00:48:14.839Z,10.61
2023-04-21T00:49:14.862Z,10.67
2023-04-21T00:50:14.870Z,10.68
2023-04-21T00:51:14.884Z,10.75
2023-04-21T00:52:14.894Z,10.68
2023-04-21T00:53:14.910Z,10.55
2023-04-21T00:54:14.922Z,10.57
2023-04-21T00:55:14.938Z,10.51
2023-04-21T00:56:14.950Z,10.55
2023-04-21T00:57:14.964Z,10.51
2023-04-21T00:58:14.980Z,10.57
2023-04-21T00:59:14.993Z,10.51
2023-04-21T01:00:15.011Z,10.45
2023-04-21T01:01:15.137Z,10.43
2023-04-21T01:02:15.137Z,10.43
2023-04-21T01:03:15.172Z,10.48
2023-04-21T01:04:15.089Z,10.39
2023-04-21T01:05:15.084Z,10.46
2023-04-21T01:06:15.111Z,10.36
2023-04-21T01:07:15.114Z,10.36
2023-04-21T01:08:15.141Z,10.34
2023-04-21T01:09:15.142Z,10.38
2023-04-21T01:10:15.158Z,10.38
2023-04-21T01:11:15.170Z,10.33
2023-04-21T01:12:15.185Z,10.36
2023-04-21T01:13:15.198Z,10.31
2023-04-21T01:14:15.213Z,10.31
2023-04-21T01:15:15.240Z,10.25
2023-04-21T01:16:15.290Z,10.31
2023-04-21T01:17:15.263Z,10.27
2023-04-21T01:18:15.346Z,10.24
2023-04-21T01:19:15.284Z,10.24
2023-04-21T01:20:15.301Z,10.17
2023-04-21T01:21:15.326Z,10.09
2023-04-21T01:22:15.371Z,10.20
2023-04-21T01:23:15.342Z,10.12
2023-04-21T01:24:15.355Z,10.20
2023-04-21T01:25:15.377Z,10.17
2023-04-21T01:26:15.384Z,10.12
2023-04-21T01:27:15.398Z,10.12
2023-04-21T01:28:15.411Z,10.12
2023-04-21T01:29:15.429Z,10.10
2023-04-21T01:30:15.444Z,10.09
2023-04-21T01:31:15.455Z,10.13
2023-04-21T01:32:15.514Z,10.06
2023-04-21T01:33:15.551Z,9.97
2023-04-21T01:34:15.498Z,10.07
2023-04-21T01:35:15.513Z,10.02
2023-04-21T01:36:15.530Z,10.03
2023-04-21T01:37:15.541Z,10.02
2023-04-21T01:38:17.632Z,9.94
2023-04-21T01:39:15.572Z,9.97
2023-04-21T01:40:15.588Z,9.91
2023-04-21T01:41:15.598Z,9.92
2023-04-21T01:42:15.619Z,9.92
2023-04-21T01:43:15.625Z,9.85
2023-04-21T01:44:15.643Z,9.84
2023-04-21T01:45:15.659Z,9.90
2023-04-21T01:46:15.700Z,9.91
2023-04-21T01:47:15.688Z,9.91
2023-04-21T01:48:15.760Z,9.85
2023-04-21T01:49:15.728Z,9.80
2023-04-21T01:50:15.723Z,9.88
2023-04-21T01:51:15.741Z,9.87
2023-04-21T01:52:15.758Z,9.74
2023-04-21T01:53:15.775Z,9.80
2023-04-21T01:54:15.789Z,9.77
2023-04-21T01:55:15.798Z,9.76
2023-04-21T01:56:15.818Z,9.76
2023-04-21T01:57:15.878Z,9.74
2023-04-21T01:58:15.836Z,9.76
2023-04-21T01:59:15.858Z,9.69
2023-04-21T02:00:15.866Z,9.69
2023-04-21T02:01:15.897Z,9.73
2023-04-21T02:02:15.969Z,9.73
2023-04-21T02:03:16.027Z,9.67
2023-04-21T02:04:16.147Z,9.63
2023-04-21T02:05:15.939Z,9.58
2023-04-21T02:06:15.949Z,9.59
2023-04-21T02:07:15.962Z,9.52
2023-04-21T02:08:15.980Z,9.54
2023-04-21T02:09:16.071Z,9.51
2023-04-21T02:10:16.082Z,9.54
2023-04-21T02:11:16.033Z,9.56
2023-04-21T02:12:16.036Z,9.48
2023-04-21T02:13:16.054Z,9.47
2023-04-21T02:14:16.072Z,9.54
2023-04-21T02:15:16.079Z,9.47
2023-04-21T02:16:16.150Z,9.44
2023-04-21T02:17:16.099Z,9.51
2023-04-21T02:18:16.123Z,9.47
2023-04-21T02:19:16.224Z,9.48
2023-04-21T02:20:16.144Z,9.49
2023-04-21T02:21:16.159Z,9.45
2023-04-21T02:22:16.175Z,9.40
2023-04-21T02:23:16.184Z,9.33
2023-04-21T02:24:16.194Z,9.34
2023-04-21T02:25:16.209Z,9.31
2023-04-21T02:26:16.223Z,9.33
2023-04-21T02:27:16.234Z,9.36
2023-04-21T02:28:16.246Z,9.34
2023-04-21T02:29:16.317Z,9.36
2023-04-21T02:30:16.275Z,9.31
2023-04-21T02:31:16.300Z,9.31
2023-04-21T02:32:25.473Z,9.39
2023-04-21T02:33:16.409Z,9.33
2023-04-21T02:34:16.327Z,9.27
2023-04-21T02:35:16.345Z,9.22
2023-04-21T02:36:16.359Z,9.27
2023-04-21T02:37:16.369Z,9.18
2023-04-21T02:38:16.388Z,9.26
2023-04-21T02:39:16.523Z,9.15
2023-04-21T02:40:16.410Z,9.22
2023-04-21T02:41:16.422Z,9.12
2023-04-21T02:42:16.438Z,9.16
2023-04-21T02:43:16.449Z,9.19
2023-04-21T02:44:16.465Z,9.11
2023-04-21T02:45:16.486Z,9.09
2023-04-21T02:46:16.507Z,9.16
2023-04-21T02:47:16.528Z,9.18
2023-04-21T02:48:16.518Z,9.15
2023-04-21T02:49:16.630Z,9.16
2023-04-21T02:50:16.559Z,9.13
2023-04-21T02:51:16.559Z,9.12
2023-04-21T02:52:16.572Z,9.08
2023-04-21T02:53:16.589Z,9.11
2023-04-21T02:54:16.598Z,9.09
2023-04-21T02:55:16.621Z,9.03
2023-04-21T02:56:16.636Z,9.12
2023-04-21T02:57:16.644Z,9.00
2023-04-21T02:58:16.658Z,9.08
2023-04-21T02:59:16.835Z,9.09
2023-04-21T03:00:16.678Z,8.95
2023-04-21T03:01:16.840Z,9.02
2023-04-21T03:02:16.781Z,9.00
2023-04-21T03:03:16.888Z,8.97
2023-04-21T03:04:16.851Z,8.95
2023-04-21T03:05:16.749Z,8.99
2023-04-21T03:06:16.758Z,8.99
2023-04-21T03:07:16.775Z,8.99
2023-04-21T03:08:16.785Z,8.93
2023-04-21T03:09:16.885Z,8.87
2023-04-21T03:10:16.813Z,8.92
2023-04-21T03:11:16.847Z,8.95
2023-04-21T03:12:16.839Z,8.86
2023-04-21T03:13:16.854Z,8.92
2023-04-21T03:14:16.875Z,8.93
2023-04-21T03:15:16.923Z,8.89
2023-04-21T03:16:16.940Z,8.95
2023-04-21T03:17:16.908Z,8.90
2023-04-21T03:18:16.920Z,8.79
2023-04-21T03:19:16.979Z,8.82
2023-04-21T03:20:16.947Z,8.81
2023-04-21T03:21:16.958Z,8.87
2023-04-21T03:22:16.974Z,8.79
2023-04-21T03:23:17.002Z,8.92
2023-04-21T03:24:17.001Z,8.79
2023-04-21T03:25:17.015Z,8.89
2023-04-21T03:26:17.030Z,8.89
2023-04-21T03:27:17.038Z,8.81
2023-04-21T03:28:17.050Z,8.87
2023-04-21T03:29:17.286Z,8.89
2023-04-21T03:30:17.089Z,8.79
2023-04-21T03:31:17.089Z,8.84
2023-04-21T03:32:17.162Z,8.84
2023-04-21T03:33:17.119Z,8.81
2023-04-21T03:34:17.134Z,8.89
2023-04-21T03:35:17.155Z,8.78
2023-04-21T03:36:17.162Z,8.78
2023-04-21T03:37:17.172Z,8.75
2023-04-21T03:38:17.185Z,8.81
2023-04-21T03:39:20.110Z,8.79
2023-04-21T03:40:17.210Z,8.81
2023-04-21T03:41:17.224Z,8.79
2023-04-21T03:42:17.235Z,8.72
2023-04-21T03:43:17.256Z,8.72
2023-04-21T03:44:17.262Z,8.71
2023-04-21T03:45:17.311Z,8.69
2023-04-21T03:46:17.325Z,8.71
2023-04-21T03:47:17.301Z,8.66
2023-04-21T03:48:17.332Z,8.69
2023-04-21T03:49:17.329Z,8.64
2023-04-21T03:50:17.354Z,8.60
2023-04-21T03:51:17.372Z,8.68
2023-04-21T03:52:17.363Z,8.66
2023-04-21T03:53:17.381Z,8.63
2023-04-21T03:54:17.396Z,8.57
2023-04-21T03:55:17.402Z,8.56
2023-04-21T03:56:17.424Z,8.63
2023-04-21T03:57:17.434Z,8.59
2023-04-21T03:58:17.473Z,8.56
2023-04-21T03:59:17.705Z,8.68
2023-04-21T04:00:17.471Z,8.57
2023-04-21T04:01:17.494Z,8.66
2023-04-21T04:02:17.559Z,8.60
2023-04-21T04:03:18.315Z,8.60
2023-04-21T04:04:17.719Z,8.57
2023-04-21T04:05:17.576Z,8.60
2023-04-21T04:06:17.553Z,8.61
2023-04-21T04:07:17.614Z,8.68
2023-04-21T04:08:17.574Z,8.56
2023-04-21T04:09:17.736Z,8.57
2023-04-21T04:10:17.607Z,8.57
2023-04-21T04:11:17.612Z,8.59
2023-04-21T04:12:17.622Z,8.56
2023-04-21T04:13:17.640Z,8.63
2023-04-21T04:14:17.660Z,8.57
2023-04-21T04:15:17.664Z,8.57
2023-04-21T04:16:17.697Z,8.56
2023-04-21T04:17:17.695Z,8.56
2023-04-21T04:18:17.704Z,8.56
2023-04-21T04:19:17.994Z,8.46
2023-04-21T04:20:17.730Z,8.60
2023-04-21T04:21:17.744Z,8.57
2023-04-21T04:22:17.761Z,8.56
2023-04-21T04:23:17.771Z,8.50
2023-04-21T04:24:17.781Z,8.54
2023-04-21T04:25:17.819Z,8.54
2023-04-21T04:26:17.812Z,8.50
2023-04-21T04:27:17.817Z,8.50
2023-04-21T04:28:17.835Z,8.56
2023-04-21T04:29:18.133Z,8.56
2023-04-21T04:30:17.862Z,8.57
2023-04-21T04:31:17.901Z,8.57
2023-04-21T04:32:17.968Z,8.57
2023-04-21T04:33:17.911Z,8.57
2023-04-21T04:34:17.968Z,8.59
2023-04-21T04:35:17.945Z,8.53
2023-04-21T04:36:17.950Z,8.61
2023-04-21T04:37:17.960Z,8.54
2023-04-21T04:38:17.970Z,8.49
2023-04-21T04:39:18.162Z,8.53
2023-04-21T04:40:17.995Z,8.57
2023-04-21T04:41:18.001Z,8.59
2023-04-21T04:42:18.015Z,8.54
2023-04-21T04:43:18.025Z,8.50
2023-04-21T04:44:18.362Z,8.56
2023-04-21T04:45:18.052Z,8.60
2023-04-21T04:46:18.077Z,8.59
2023-04-21T04:47:18.127Z,8.66
2023-04-21T04:48:18.094Z,8.63
2023-04-21T04:49:18.105Z,8.63
2023-04-21T04:50:18.121Z,8.63
2023-04-21T04:51:18.142Z,8.72
2023-04-21T04:52:18.152Z,8.66
2023-04-21T04:53:18.159Z,8.64
2023-04-21T04:54:18.407Z,8.64
2023-04-21T04:55:18.179Z,8.64
2023-04-21T04:56:18.196Z,8.71
2023-04-21T04:57:18.225Z,8.69
2023-04-21T04:58:18.227Z,8.72
2023-04-21T04:59:18.239Z,8.66
2023-04-21T05:00:18.256Z,8.74
2023-04-21T05:01:18.401Z,8.79
2023-04-21T05:02:18.316Z,8.74
2023-04-21T05:03:18.507Z,8.75
2023-04-21T05:04:18.525Z,8.74
2023-04-21T05:05:18.321Z,8.82
2023-04-21T05:06:18.333Z,8.77
2023-04-21T05:07:18.353Z,8.74
2023-04-21T05:08:18.409Z,8.81
2023-04-21T05:09:18.372Z,8.77
2023-04-21T05:10:18.384Z,8.84
2023-04-21T05:11:18.397Z,8.81
2023-04-21T05:12:18.421Z,8.89
2023-04-21T05:13:18.425Z,8.89
2023-04-21T05:14:18.671Z,8.89
2023-04-21T05:15:18.454Z,8.89
2023-04-21T05:16:18.491Z,8.86
2023-04-21T05:17:18.489Z,8.86
2023-04-21T05:18:18.491Z,8.96
2023-04-21T05:19:18.819Z,8.99
2023-04-21T05:20:18.519Z,8.99
2023-04-21T05:21:18.532Z,9.00
2023-04-21T05:22:18.571Z,9.08
2023-04-21T05:23:18.557Z,9.05
2023-04-21T05:24:18.790Z,9.11
2023-04-21T05:25:18.585Z,9.09
2023-04-21T05:26:18.598Z,9.15
2023-04-21T05:27:18.641Z,9.12
2023-04-21T05:28:18.625Z,9.15
2023-04-21T05:29:18.639Z,9.19
2023-04-21T05:30:18.660Z,9.24
2023-04-21T05:31:18.667Z,9.19
2023-04-21T05:32:18.835Z,9.29
2023-04-21T05:33:18.783Z,9.29
2023-04-21T05:34:18.965Z,9.31
2023-04-21T05:35:18.728Z,9.42
2023-04-21T05:36:18.744Z,9.34
2023-04-21T05:37:18.749Z,9.33
2023-04-21T05:38:18.763Z,9.33
2023-04-21T05:39:18.774Z,9.37
2023-04-21T05:40:18.789Z,9.51
2023-04-21T05:41:18.812Z,9.48
2023-04-21T05:42:18.836Z,9.47
2023-04-21T05:43:18.833Z,9.54
2023-04-21T05:44:19.060Z,9.51
2023-04-21T05:45:18.859Z,9.62
2023-04-21T05:46:18.973Z,9.66
2023-04-21T05:47:18.883Z,9.67
2023-04-21T05:48:18.963Z,9.70
2023-04-21T05:49:18.914Z,9.73
2023-04-21T05:50:18.934Z,9.72
2023-04-21T05:51:18.950Z,9.74
2023-04-21T05:52:18.957Z,9.82
2023-04-21T05:53:18.982Z,9.90
2023-04-21T05:54:19.163Z,9.90
2023-04-21T05:55:19.004Z,9.85
2023-04-21T05:56:19.013Z,9.87
2023-04-21T05:57:19.027Z,9.95
2023-04-21T05:58:19.040Z,9.99
2023-04-21T05:59:19.053Z,9.99
2023-04-21T06:00:19.064Z,10.07
2023-04-21T06:01:19.088Z,10.09
2023-04-21T06:02:19.145Z,10.12
2023-04-21T06:03:19.265Z,10.10
2023-04-21T06:04:19.590Z,10.28
2023-04-21T06:05:19.168Z,10.31
2023-04-21T06:06:19.158Z,10.39
2023-04-21T06:07:19.168Z,10.39
2023-04-21T06:08:19.182Z,10.51
2023-04-21T06:09:19.202Z,10.57
2023-04-21T06:10:19.214Z,10.61
2023-04-21T06:11:19.225Z,10.65
2023-04-21T06:12:19.241Z,10.76
2023-04-21T06:13:19.260Z,10.68
2023-04-21T06:14:19.505Z,10.80
2023-04-21T06:15:19.283Z,10.79
2023-04-21T06:16:19.354Z,10.94
2023-04-21T06:17:19.318Z,11.02
2023-04-21T06:18:19.328Z,11.08
2023-04-21T06:19:19.346Z,11.10
2023-04-21T06:20:19.361Z,11.16
2023-04-21T06:21:19.382Z,11.33
2023-04-21T06:22:19.390Z,11.38
2023-04-21T06:23:19.434Z,11.56
2023-04-21T06:24:19.643Z,11.70
2023-04-21T06:25:19.446Z,11.86
2023-04-21T06:26:19.456Z,12.03
2023-04-21T06:27:19.472Z,12.14
2023-04-21T06:28:19.485Z,12.39
2023-04-21T06:29:19.516Z,12.54
2023-04-21T06:30:19.516Z,12.76
2023-04-21T06:31:19.587Z,12.86
2023-04-21T06:32:19.552Z,13.13
2023-04-21T06:33:19.584Z,13.26
2023-04-21T06:34:19.902Z,13.52
2023-04-21T06:35:19.619Z,13.67
2023-04-21T06:36:19.622Z,13.79
2023-04-21T06:37:19.639Z,13.97
2023-04-21T06:38:19.665Z,14.13
2023-04-21T06:39:19.675Z,14.26
2023-04-21T06:40:19.704Z,14.43
2023-04-21T06:41:19.711Z,14.63
2023-04-21T06:42:19.728Z,14.81
2023-04-21T06:43:19.745Z,14.96
2023-04-21T06:44:19.904Z,15.05
2023-04-21T06:45:19.782Z,15.23
2023-04-21T06:46:19.830Z,15.37
2023-04-21T06:47:19.876Z,15.37
2023-04-21T06:48:19.846Z,15.54
2023-04-21T06:49:20.242Z,15.76
2023-04-21T06:50:19.879Z,15.98
2023-04-21T06:51:19.901Z,16.00
2023-04-21T06:52:20.319Z,16.13
2023-04-21T06:53:19.934Z,16.24
2023-04-21T06:54:19.955Z,16.34
2023-04-21T06:55:19.975Z,16.46
2023-04-21T06:56:19.992Z,16.46
2023-04-21T06:57:20.017Z,16.50
2023-04-21T06:58:21.333Z,16.76
2023-04-21T06:59:20.473Z,16.74
2023-04-21T07:00:20.071Z,16.89
2023-04-21T07:01:20.125Z,16.97
2023-04-21T07:02:20.160Z,16.94
2023-04-21T07:03:20.271Z,17.14
2023-04-21T07:04:20.195Z,17.12
2023-04-21T07:05:20.187Z,17.13
2023-04-21T07:06:20.209Z,17.27
2023-04-21T07:07:20.217Z,17.30
2023-04-21T07:08:20.238Z,17.34
2023-04-21T07:09:20.438Z,17.42
2023-04-21T07:10:20.282Z,17.57
2023-04-21T07:11:20.302Z,17.42
2023-04-21T07:12:20.323Z,17.56
2023-04-21T07:13:20.355Z,17.57
2023-04-21T07:14:20.367Z,17.71
2023-04-21T07:15:20.394Z,17.73
2023-04-21T07:16:20.456Z,17.84
2023-04-21T07:17:20.432Z,17.97
2023-04-21T07:18:20.454Z,18.15
2023-04-21T07:19:20.746Z,18.30
2023-04-21T07:20:20.502Z,18.27
2023-04-21T07:21:20.516Z,18.36
2023-04-21T07:22:20.539Z,18.36
2023-04-21T07:23:20.562Z,18.41
2023-04-21T07:24:20.578Z,18.37
2023-04-21T07:25:20.612Z,18.37
2023-04-21T07:26:20.624Z,18.37
2023-04-21T07:27:20.641Z,18.39
2023-04-21T07:28:20.667Z,18.49
2023-04-21T07:29:20.899Z,18.61
2023-04-21T07:30:20.707Z,18.81
2023-04-21T07:31:20.787Z,18.85
2023-04-21T07:32:20.784Z,18.92
2023-04-21T07:33:20.770Z,19.09
2023-04-21T07:34:20.798Z,19.09
2023-04-21T07:35:20.821Z,19.09
2023-04-21T07:36:20.942Z,19.12
2023-04-21T07:37:20.863Z,19.01
2023-04-21T07:38:20.887Z,18.94
2023-04-21T07:39:21.242Z,19.01
2023-04-21T07:40:20.934Z,19.05
2023-04-21T07:41:20.958Z,19.17
2023-04-21T07:42:20.969Z,19.19
2023-04-21T07:43:20.993Z,19.24
2023-04-21T07:44:21.019Z,19.27
2023-04-21T07:45:21.046Z,19.34
2023-04-21T07:46:21.092Z,19.35
2023-04-21T07:47:21.081Z,19.41
2023-04-21T07:48:21.103Z,19.42
2023-04-21T07:49:21.362Z,19.45
2023-04-21T07:50:21.154Z,19.45
2023-04-21T07:51:21.217Z,19.52
2023-04-21T07:52:21.201Z,19.59
2023-04-21T07:53:21.216Z,19.63
2023-04-21T07:54:21.247Z,19.67
2023-04-21T07:55:21.263Z,19.77
2023-04-21T07:56:21.286Z,19.82
2023-04-21T07:57:21.316Z,19.89
2023-04-21T07:58:21.346Z,19.90
2023-04-21T07:59:21.460Z,19.75
2023-04-21T08:00:21.384Z,19.66
2023-04-21T08:01:21.513Z,19.59
2023-04-21T08:02:21.527Z,19.53
2023-04-21T08:03:24.270Z,19.49
2023-04-21T08:04:21.745Z,19.44
2023-04-21T08:05:21.576Z,19.34
2023-04-21T08:06:21.666Z,19.20
2023-04-21T08:07:21.731Z,18.92
2023-04-21T08:08:21.566Z,18.83
2023-04-21T08:09:21.816Z,18.57
2023-04-21T08:10:21.616Z,18.39
2023-04-21T08:11:21.636Z,18.27
2023-04-21T08:12:21.689Z,18.16
2023-04-21T08:13:21.682Z,18.16
2023-04-21T08:14:21.865Z,18.02
2023-04-21T08:15:21.733Z,17.94
2023-04-21T08:16:21.844Z,17.76
2023-04-21T08:17:21.787Z,17.69
2023-04-21T08:18:22.645Z,17.65
2023-04-21T08:19:21.980Z,17.59
2023-04-21T08:20:21.836Z,17.57
2023-04-21T08:21:21.853Z,17.52
2023-04-21T08:22:21.922Z,17.38
2023-04-21T08:23:22.027Z,17.30
2023-04-21T08:24:22.102Z,17.19
2023-04-21T08:25:21.932Z,17.13
2023-04-21T08:26:21.959Z,17.12
2023-04-21T08:27:21.975Z,17.10
2023-04-21T08:28:21.992Z,17.12
2023-04-21T08:29:22.012Z,17.07
2023-04-21T08:30:22.036Z,17.05
2023-04-21T08:31:22.147Z,16.95
2023-04-21T08:32:22.078Z,16.92
2023-04-21T08:33:22.136Z,16.95
2023-04-21T08:34:23.614Z,16.91
2023-04-21T08:35:22.150Z,16.87
2023-04-21T08:36:28.926Z,16.89
2023-04-21T08:37:22.182Z,16.87
2023-04-21T08:38:22.196Z,16.89
2023-04-21T08:39:22.421Z,16.87
2023-04-21T08:40:22.308Z,16.86
2023-04-21T08:41:22.263Z,16.92
2023-04-21T08:42:22.276Z,16.94
2023-04-21T08:43:22.297Z,16.92
2023-04-21T08:44:22.394Z,16.92
2023-04-21T08:45:22.339Z,16.92
2023-04-21T08:46:22.750Z,16.91
2023-04-21T08:47:22.425Z,16.91
2023-04-21T08:48:22.397Z,16.91
2023-04-21T08:49:22.508Z,16.97
2023-04-21T08:50:22.463Z,17.01
2023-04-21T08:51:22.469Z,16.98
2023-04-21T08:52:22.491Z,16.98
2023-04-21T08:53:22.496Z,16.94
2023-04-21T08:54:22.527Z,16.98
2023-04-21T08:55:22.535Z,16.97
2023-04-21T08:56:22.556Z,17.02
2023-04-21T08:57:22.575Z,16.92
2023-04-21T08:58:22.603Z,16.92
2023-04-21T08:59:22.737Z,17.04
2023-04-21T09:00:22.670Z,17.01
2023-04-21T09:01:22.803Z,17.04
2023-04-21T09:02:22.792Z,17.04
2023-04-21T09:03:25.943Z,17.05
2023-04-21T09:04:22.952Z,17.05
2023-04-21T09:05:22.980Z,17.01
2023-04-21T09:06:22.931Z,17.01
2023-04-21T09:07:22.773Z,17.07
2023-04-21T09:08:22.792Z,17.10
2023-04-21T09:09:22.816Z,17.14
2023-04-21T09:10:22.841Z,17.13
2023-04-21T09:11:22.856Z,17.19
2023-04-21T09:12:22.874Z,17.17
2023-04-21T09:13:22.894Z,17.19
2023-04-21T09:14:22.912Z,17.16
2023-04-21T09:15:22.945Z,17.22
2023-04-21T09:16:23.059Z,17.30
2023-04-21T09:17:23.028Z,17.28
2023-04-21T09:18:22.991Z,17.30
2023-04-21T09:19:23.012Z,17.31
2023-04-21T09:20:23.046Z,17.41
2023-04-21T09:21:23.060Z,17.47
2023-04-21T09:22:23.073Z,17.50
2023-04-21T09:23:23.095Z,17.39
2023-04-21T09:24:23.116Z,17.38
2023-04-21T09:25:23.150Z,17.39
2023-04-21T09:26:23.362Z,17.37
2023-04-21T09:27:23.244Z,17.42
2023-04-21T09:28:23.195Z,17.39
2023-04-21T09:29:23.212Z,17.53
2023-04-21T09:30:23.231Z,17.54
2023-04-21T09:31:23.307Z,17.56
2023-04-21T09:32:23.334Z,17.63
2023-04-21T09:33:30.723Z,17.66
2023-04-21T09:34:23.313Z,17.66
2023-04-21T09:35:23.341Z,17.60
2023-04-21T09:36:23.350Z,17.78
2023-04-21T09:37:23.378Z,17.82
2023-04-21T09:38:23.413Z,17.84
2023-04-21T09:39:38.264Z,17.84
2023-04-21T09:40:23.436Z,17.91
2023-04-21T09:41:23.458Z,17.88
2023-04-21T09:42:23.480Z,17.98
2023-04-21T09:43:23.494Z,18.00
2023-04-21T09:44:23.886Z,17.97
2023-04-21T09:45:32.882Z,18.02
2023-04-21T09:46:23.602Z,18.12
2023-04-21T09:47:23.635Z,18.16
2023-04-21T09:48:23.598Z,18.12
2023-04-21T09:49:23.617Z,18.37
2023-04-21T09:50:54.430Z,18.36
2023-04-21T09:51:32.736Z,18.30
2023-04-21T09:52:23.684Z,18.30
2023-04-21T09:53:23.702Z,18.37
2023-04-21T09:55:23.749Z,18.42
2023-04-21T09:56:23.775Z,18.43
2023-04-21T09:57:23.783Z,18.42
2023-04-21T09:58:23.800Z,18.48
2023-04-21T09:59:23.887Z,18.53
2023-04-21T10:00:23.840Z,18.52
2023-04-21T10:01:23.873Z,18.58
2023-04-21T10:02:24.172Z,18.60
2023-04-21T10:03:23.965Z,18.57
2023-04-21T10:04:24.348Z,18.60
2023-04-21T10:05:24.002Z,18.64
2023-04-21T10:06:23.963Z,18.81
2023-04-21T10:07:23.988Z,18.79
2023-04-21T10:08:24.009Z,18.86
2023-04-21T10:09:24.034Z,18.85
2023-04-21T10:10:24.055Z,18.89
2023-04-21T10:11:24.070Z,19.00
2023-04-21T10:12:24.093Z,19.12
2023-04-21T10:13:24.111Z,19.07
2023-04-21T10:14:24.138Z,19.11
2023-04-21T10:15:24.162Z,19.15
2023-04-21T10:16:24.201Z,19.30
2023-04-21T10:17:24.220Z,19.26
2023-04-21T10:18:24.223Z,19.30
2023-04-21T10:19:24.249Z,19.49
2023-04-21T10:20:24.275Z,19.64
2023-04-21T10:21:24.321Z,19.70
2023-04-21T10:22:24.319Z,19.84
2023-04-21T10:23:24.347Z,19.93
2023-04-21T10:24:24.368Z,20.11
2023-04-21T10:25:24.390Z,20.12
2023-04-21T10:26:24.414Z,20.42
2023-04-21T10:27:24.438Z,20.48
2023-04-21T10:28:24.466Z,20.68
2023-04-21T10:29:24.488Z,20.66
2023-04-21T10:30:24.546Z,20.77
2023-04-21T10:31:24.574Z,20.90
2023-04-21T10:32:24.573Z,20.93
2023-04-21T10:33:24.587Z,21.01
2023-04-21T10:34:24.616Z,21.26
2023-04-21T10:35:24.651Z,21.26
2023-04-21T10:36:24.667Z,21.28
2023-04-21T10:37:24.696Z,21.58
2023-04-21T10:38:24.729Z,21.74
2023-04-21T10:39:24.750Z,21.96
2023-04-21T10:40:36.379Z,22.08
2023-04-21T10:41:24.803Z,22.10
2023-04-21T10:42:24.828Z,22.49
2023-04-21T10:43:24.858Z,22.70
2023-04-21T10:44:24.884Z,22.91
2023-04-21T10:45:24.914Z,23.02
2023-04-21T10:46:24.985Z,23.23
2023-04-21T10:47:25.043Z,23.26
2023-04-21T10:48:25.001Z,23.51
2023-04-21T10:49:25.031Z,23.74
2023-04-21T10:50:25.245Z,24.01
2023-04-21T10:51:25.089Z,24.11
2023-04-21T10:52:25.123Z,24.46
2023-04-21T10:53:25.150Z,24.47
2023-04-21T10:54:25.187Z,24.50
2023-04-21T10:55:25.224Z,24.53
2023-04-21T10:56:25.241Z,24.68
2023-04-21T10:57:25.272Z,24.84
2023-04-21T10:58:25.301Z,25.06
2023-04-21T10:59:25.333Z,25.24
2023-04-21T11:00:25.365Z,25.31
2023-04-21T11:01:25.427Z,25.43
2023-04-21T11:02:25.535Z,25.48
2023-04-21T11:03:25.691Z,25.58
2023-04-21T11:04:26.195Z,25.55
2023-04-21T11:05:25.519Z,25.78
2023-04-21T11:06:25.546Z,25.86
2023-04-21T11:07:25.584Z,26.10
2023-04-21T11:08:25.612Z,26.10
2023-04-21T11:09:25.660Z,26.31
2023-04-21T11:10:25.674Z,26.36
2023-04-21T11:11:25.715Z,26.39
2023-04-21T11:12:25.743Z,26.49
2023-04-21T11:13:25.764Z,26.55
2023-04-21T11:14:25.797Z,26.79
2023-04-21T11:15:25.832Z,26.79
2023-04-21T11:16:25.893Z,26.68
2023-04-21T11:17:25.918Z,26.70
2023-04-21T11:18:25.932Z,26.92
2023-04-21T11:19:25.959Z,26.73
2023-04-21T11:20:25.991Z,26.76
2023-04-21T11:21:26.025Z,26.76
2023-04-21T11:22:26.065Z,26.60
2023-04-21T11:23:26.087Z,26.68
2023-04-21T11:24:26.119Z,26.51
2023-04-21T11:25:26.148Z,26.51
2023-04-21T11:26:26.191Z,26.68
2023-04-21T11:27:26.212Z,26.70
2023-04-21T11:28:26.242Z,26.71
2023-04-21T11:29:26.269Z,26.81
2023-04-21T11:30:26.309Z,26.74
2023-04-21T11:31:26.367Z,26.79
2023-04-21T11:32:26.366Z,26.79
2023-04-21T11:33:26.399Z,26.83
2023-04-21T11:34:26.438Z,26.83
2023-04-21T11:35:26.458Z,26.74
2023-04-21T11:36:26.490Z,26.83
2023-04-21T11:37:26.525Z,26.81
2023-04-21T11:38:26.572Z,26.82
2023-04-21T11:39:26.590Z,26.91
2023-04-21T11:40:26.612Z,26.93
2023-04-21T11:41:26.644Z,26.73
2023-04-21T11:42:26.672Z,26.70
2023-04-21T11:43:26.710Z,26.85
2023-04-21T11:44:26.739Z,26.86
2023-04-21T11:45:26.768Z,26.93
2023-04-21T11:46:26.891Z,26.74
2023-04-21T11:47:27.051Z,26.68
2023-04-21T11:48:26.862Z,26.79
2023-04-21T11:49:26.893Z,26.74
2023-04-21T11:50:26.929Z,26.85
2023-04-21T11:51:26.954Z,26.73
2023-04-21T11:52:26.989Z,26.66
2023-04-21T11:53:27.018Z,26.74
2023-04-21T11:54:27.051Z,26.79
2023-04-21T11:55:27.078Z,26.76
2023-04-21T11:56:27.111Z,26.78
2023-04-21T11:57:27.137Z,26.78
2023-04-21T11:58:27.185Z,26.92
2023-04-21T11:59:27.201Z,27.00
2023-04-21T12:00:27.234Z,27.01
2023-04-21T12:01:27.276Z,26.89
2023-04-21T12:02:27.422Z,26.92
2023-04-21T12:03:27.491Z,26.93
2023-04-21T12:04:27.516Z,26.91
2023-04-21T12:05:27.400Z,26.88
2023-04-21T12:06:27.469Z,26.88
2023-04-21T12:07:27.455Z,26.92
2023-04-21T12:08:27.483Z,26.82
2023-04-21T12:09:27.514Z,26.96
2023-04-21T12:10:27.549Z,27.04
2023-04-21T12:11:27.583Z,27.07
2023-04-21T12:12:27.621Z,27.04
2023-04-21T12:13:27.645Z,27.07
2023-04-21T12:14:27.679Z,26.91
2023-04-21T12:15:27.720Z,26.70
2023-04-21T12:16:27.771Z,26.49
2023-04-21T12:17:27.778Z,26.51
2023-04-21T12:18:27.794Z,26.30
2023-04-21T12:19:27.829Z,26.31
2023-04-21T12:20:27.867Z,26.22
2023-04-21T12:21:27.883Z,26.19
2023-04-21T12:22:27.910Z,26.29
2023-04-21T12:23:27.940Z,26.31
2023-04-21T12:24:27.977Z,26.37
2023-04-21T12:25:27.998Z,26.39
2023-04-21T12:26:28.030Z,26.36
2023-04-21T12:27:28.065Z,26.27
2023-04-21T12:28:28.089Z,26.34
2023-04-21T12:29:28.118Z,26.30
2023-04-21T12:30:28.143Z,26.34
2023-04-21T12:31:28.208Z,26.37
2023-04-21T12:32:28.326Z,26.55
2023-04-21T12:33:28.373Z,26.59
2023-04-21T12:34:28.267Z,26.52
2023-04-21T12:35:28.300Z,26.18
2023-04-21T12:36:28.331Z,26.07
2023-04-21T12:37:28.355Z,25.95
2023-04-21T12:38:28.381Z,25.99
2023-04-21T12:39:28.686Z,25.96
2023-04-21T12:40:28.441Z,25.96
2023-04-21T12:41:28.471Z,25.99
2023-04-21T12:42:28.500Z,25.98
2023-04-21T12:43:28.527Z,26.07
2023-04-21T12:44:28.556Z,26.06
2023-04-21T12:45:28.612Z,26.13
2023-04-21T12:46:28.683Z,26.07
2023-04-21T12:47:28.692Z,25.93
2023-04-21T12:48:28.708Z,25.78
2023-04-21T12:49:28.878Z,25.74
2023-04-21T12:50:28.731Z,25.73
2023-04-21T12:51:28.760Z,25.58
2023-04-21T12:52:28.800Z,25.51
2023-04-21T12:53:30.627Z,25.34
2023-04-21T12:54:28.846Z,25.16
2023-04-21T12:55:28.892Z,25.07
2023-04-21T12:56:28.910Z,24.99
2023-04-21T12:57:28.936Z,24.78
2023-04-21T12:58:28.974Z,24.69
2023-04-21T12:59:29.200Z,24.66
2023-04-21T13:00:29.029Z,24.59
2023-04-21T13:01:29.130Z,24.38
2023-04-21T13:02:29.218Z,24.21